sensor_id;sensor_type;location;lat;lon;timestamp;P1;durP1;ratioP1;P2;durP2;ratioP2
56435;SDS011;42335;44.872;20.658;2024-03-08T00:02:16;14.45;;;9.20;;
56435;SDS011;42335;44.872;20.658;2024-03-08T00:04:42;11.45;;;8.90;;
56435;SDS011;42335;44.872;20.658;2024-03-08T00:07:10;11.43;;;9.32;;
56435;SDS011;42335;44.872;20.658;2024-03-08T00:09:35;12.48;;;9.15;;
56435;SDS011;42335;44.872;20.658;2024-03-08T00:12:01;11.85;;;8.80;;
56435;SDS011;42335;44.872;20.658;2024-03-08T00:14:27;12.27;;;9.13;;
56435;SDS011;42335;44.872;20.658;2024-03-08T00:16:53;12.43;;;8.27;;
56435;SDS011;42335;44.872;20.658;2024-03-08T00:19:19;13.43;;;9.45;;
56435;SDS011;42335;44.872;20.658;2024-03-08T00:21:45;11.63;;;8.68;;
56435;SDS011;42335;44.872;20.658;2024-03-08T00:24:11;19.70;;;11.02;;
56435;SDS011;42335;44.872;20.658;2024-03-08T00:26:37;10.88;;;8.65;;
56435;SDS011;42335;44.872;20.658;2024-03-08T00:29:03;10.10;;;8.30;;
56435;SDS011;42335;44.872;20.658;2024-03-08T00:31:29;12.18;;;8.30;;
56435;SDS011;42335;44.872;20.658;2024-03-08T00:33:56;11.73;;;8.80;;
56435;SDS011;42335;44.872;20.658;2024-03-08T00:36:22;13.32;;;8.93;;
56435;SDS011;42335;44.872;20.658;2024-03-08T00:38:48;10.88;;;8.70;;
56435;SDS011;42335;44.872;20.658;2024-03-08T00:41:14;11.15;;;8.77;;
56435;SDS011;42335;44.872;20.658;2024-03-08T00:43:40;11.80;;;9.10;;
56435;SDS011;42335;44.872;20.658;2024-03-08T00:46:05;10.18;;;8.02;;
56435;SDS011;42335;44.872;20.658;2024-03-08T00:48:31;10.00;;;7.78;;
56435;SDS011;42335;44.872;20.658;2024-03-08T00:50:57;12.00;;;8.90;;
56435;SDS011;42335;44.872;20.658;2024-03-08T00:53:23;9.60;;;7.90;;
56435;SDS011;42335;44.872;20.658;2024-03-08T00:55:48;11.25;;;9.23;;
56435;SDS011;42335;44.872;20.658;2024-03-08T00:58:14;12.23;;;8.40;;
56435;SDS011;42335;44.872;20.658;2024-03-08T01:00:40;10.75;;;8.23;;
56435;SDS011;42335;44.872;20.658;2024-03-08T01:03:06;10.75;;;8.70;;
56435;SDS011;42335;44.872;20.658;2024-03-08T01:05:32;11.00;;;8.68;;
56435;SDS011;42335;44.872;20.658;2024-03-08T01:08:00;11.63;;;8.98;;
56435;SDS011;42335;44.872;20.658;2024-03-08T01:10:28;9.73;;;8.50;;
56435;SDS011;42335;44.872;20.658;2024-03-08T01:12:54;11.65;;;8.43;;
56435;SDS011;42335;44.872;20.658;2024-03-08T01:15:22;10.50;;;8.85;;
56435;SDS011;42335;44.872;20.658;2024-03-08T01:17:48;11.30;;;8.50;;
56435;SDS011;42335;44.872;20.658;2024-03-08T01:20:15;14.73;;;9.23;;
56435;SDS011;42335;44.872;20.658;2024-03-08T01:22:41;14.75;;;9.55;;
56435;SDS011;42335;44.872;20.658;2024-03-08T01:25:07;13.95;;;10.15;;
56435;SDS011;42335;44.872;20.658;2024-03-08T01:27:33;15.25;;;9.88;;
56435;SDS011;42335;44.872;20.658;2024-03-08T01:30:02;12.75;;;9.65;;
56435;SDS011;42335;44.872;20.658;2024-03-08T01:32:29;15.13;;;10.15;;
56435;SDS011;42335;44.872;20.658;2024-03-08T01:34:54;12.07;;;9.00;;
56435;SDS011;42335;44.872;20.658;2024-03-08T01:37:20;13.77;;;10.30;;
56435;SDS011;42335;44.872;20.658;2024-03-08T01:39:46;13.40;;;9.35;;
56435;SDS011;42335;44.872;20.658;2024-03-08T01:42:12;13.25;;;10.32;;
56435;SDS011;42335;44.872;20.658;2024-03-08T01:44:40;13.38;;;10.35;;
56435;SDS011;42335;44.872;20.658;2024-03-08T01:47:06;15.00;;;9.82;;
56435;SDS011;42335;44.872;20.658;2024-03-08T01:49:32;17.10;;;12.43;;
56435;SDS011;42335;44.872;20.658;2024-03-08T01:51:58;13.45;;;10.07;;
56435;SDS011;42335;44.872;20.658;2024-03-08T01:54:24;13.55;;;10.38;;
56435;SDS011;42335;44.872;20.658;2024-03-08T01:56:51;19.05;;;11.63;;
56435;SDS011;42335;44.872;20.658;2024-03-08T01:59:18;15.48;;;11.10;;
56435;SDS011;42335;44.872;20.658;2024-03-08T02:01:44;13.52;;;10.02;;
56435;SDS011;42335;44.872;20.658;2024-03-08T02:04:10;15.02;;;10.88;;
56435;SDS011;42335;44.872;20.658;2024-03-08T02:06:36;14.85;;;10.32;;
56435;SDS011;42335;44.872;20.658;2024-03-08T02:09:03;13.52;;;11.23;;
56435;SDS011;42335;44.872;20.658;2024-03-08T02:11:31;12.93;;;10.02;;
56435;SDS011;42335;44.872;20.658;2024-03-08T02:13:58;13.85;;;10.65;;
56435;SDS011;42335;44.872;20.658;2024-03-08T02:16:24;12.57;;;10.43;;
56435;SDS011;42335;44.872;20.658;2024-03-08T02:18:50;15.55;;;10.35;;
56435;SDS011;42335;44.872;20.658;2024-03-08T02:21:17;14.18;;;10.52;;
56435;SDS011;42335;44.872;20.658;2024-03-08T02:23:43;15.40;;;11.40;;
56435;SDS011;42335;44.872;20.658;2024-03-08T02:26:09;13.48;;;10.27;;
56435;SDS011;42335;44.872;20.658;2024-03-08T02:28:36;11.02;;;9.32;;
56435;SDS011;42335;44.872;20.658;2024-03-08T02:31:02;13.10;;;10.32;;
56435;SDS011;42335;44.872;20.658;2024-03-08T02:33:28;13.07;;;9.18;;
56435;SDS011;42335;44.872;20.658;2024-03-08T02:35:54;12.10;;;10.05;;
56435;SDS011;42335;44.872;20.658;2024-03-08T02:38:23;12.90;;;10.05;;
56435;SDS011;42335;44.872;20.658;2024-03-08T02:40:50;11.88;;;10.02;;
56435;SDS011;42335;44.872;20.658;2024-03-08T02:43:17;15.70;;;11.25;;
56435;SDS011;42335;44.872;20.658;2024-03-08T02:45:44;16.23;;;11.63;;
56435;SDS011;42335;44.872;20.658;2024-03-08T02:48:11;16.27;;;10.10;;
56435;SDS011;42335;44.872;20.658;2024-03-08T02:50:37;14.55;;;10.68;;
56435;SDS011;42335;44.872;20.658;2024-03-08T02:53:05;14.90;;;10.95;;
56435;SDS011;42335;44.872;20.658;2024-03-08T02:55:32;16.38;;;12.15;;
56435;SDS011;42335;44.872;20.658;2024-03-08T02:58:01;15.65;;;11.50;;
56435;SDS011;42335;44.872;20.658;2024-03-08T03:00:28;15.60;;;11.95;;
56435;SDS011;42335;44.872;20.658;2024-03-08T03:02:56;14.63;;;11.70;;
56435;SDS011;42335;44.872;20.658;2024-03-08T03:05:22;18.67;;;13.13;;
56435;SDS011;42335;44.872;20.658;2024-03-08T03:07:49;17.55;;;13.00;;
56435;SDS011;42335;44.872;20.658;2024-03-08T03:10:18;19.30;;;14.30;;
56435;SDS011;42335;44.872;20.658;2024-03-08T03:12:46;22.70;;;14.25;;
56435;SDS011;42335;44.872;20.658;2024-03-08T03:15:14;18.15;;;14.25;;
56435;SDS011;42335;44.872;20.658;2024-03-08T03:17:45;20.23;;;14.70;;
56435;SDS011;42335;44.872;20.658;2024-03-08T03:20:12;21.73;;;15.63;;
56435;SDS011;42335;44.872;20.658;2024-03-08T03:22:39;23.67;;;15.07;;
56435;SDS011;42335;44.872;20.658;2024-03-08T03:25:12;22.97;;;15.70;;
56435;SDS011;42335;44.872;20.658;2024-03-08T03:27:38;18.73;;;14.95;;
56435;SDS011;42335;44.872;20.658;2024-03-08T03:30:05;22.83;;;16.60;;
56435;SDS011;42335;44.872;20.658;2024-03-08T03:32:49;30.63;;;17.60;;
56435;SDS011;42335;44.872;20.658;2024-03-08T03:35:21;33.13;;;21.40;;
56435;SDS011;42335;44.872;20.658;2024-03-08T03:37:47;28.08;;;18.80;;
56435;SDS011;42335;44.872;20.658;2024-03-08T03:40:29;32.15;;;20.17;;
56435;SDS011;42335;44.872;20.658;2024-03-08T03:42:56;29.77;;;20.08;;
56435;SDS011;42335;44.872;20.658;2024-03-08T03:45:22;30.85;;;20.33;;
56435;SDS011;42335;44.872;20.658;2024-03-08T03:47:48;26.77;;;20.05;;
56435;SDS011;42335;44.872;20.658;2024-03-08T03:50:14;30.92;;;19.42;;
56435;SDS011;42335;44.872;20.658;2024-03-08T03:52:40;34.42;;;21.58;;
56435;SDS011;42335;44.872;20.658;2024-03-08T03:55:07;33.90;;;21.17;;
56435;SDS011;42335;44.872;20.658;2024-03-08T03:57:33;29.80;;;20.25;;
56435;SDS011;42335;44.872;20.658;2024-03-08T03:59:59;29.23;;;19.42;;
56435;SDS011;42335;44.872;20.658;2024-03-08T04:02:27;30.63;;;20.58;;
56435;SDS011;42335;44.872;20.658;2024-03-08T04:04:53;29.85;;;19.33;;
56435;SDS011;42335;44.872;20.658;2024-03-08T04:07:19;25.63;;;17.95;;
56435;SDS011;42335;44.872;20.658;2024-03-08T04:09:46;26.70;;;18.58;;
56435;SDS011;42335;44.872;20.658;2024-03-08T04:12:12;26.77;;;17.83;;
56435;SDS011;42335;44.872;20.658;2024-03-08T04:14:42;24.15;;;17.80;;
56435;SDS011;42335;44.872;20.658;2024-03-08T04:17:08;29.23;;;19.38;;
56435;SDS011;42335;44.872;20.658;2024-03-08T04:19:34;24.55;;;17.67;;
56435;SDS011;42335;44.872;20.658;2024-03-08T04:22:01;31.50;;;17.35;;
56435;SDS011;42335;44.872;20.658;2024-03-08T04:24:27;25.60;;;17.92;;
56435;SDS011;42335;44.872;20.658;2024-03-08T04:26:53;27.80;;;19.48;;
56435;SDS011;42335;44.872;20.658;2024-03-08T04:29:19;26.92;;;18.27;;
56435;SDS011;42335;44.872;20.658;2024-03-08T04:31:47;23.65;;;17.20;;
56435;SDS011;42335;44.872;20.658;2024-03-08T04:34:12;24.15;;;16.75;;
56435;SDS011;42335;44.872;20.658;2024-03-08T04:36:39;25.52;;;17.13;;
56435;SDS011;42335;44.872;20.658;2024-03-08T04:39:05;24.83;;;17.15;;
56435;SDS011;42335;44.872;20.658;2024-03-08T04:41:36;28.00;;;17.67;;
56435;SDS011;42335;44.872;20.658;2024-03-08T04:44:03;29.73;;;17.33;;
56435;SDS011;42335;44.872;20.658;2024-03-08T04:46:29;26.27;;;17.13;;
56435;SDS011;42335;44.872;20.658;2024-03-08T04:48:54;26.45;;;18.17;;
56435;SDS011;42335;44.872;20.658;2024-03-08T04:51:20;26.52;;;18.00;;
56435;SDS011;42335;44.872;20.658;2024-03-08T04:53:46;30.33;;;17.40;;
56435;SDS011;42335;44.872;20.658;2024-03-08T04:56:12;25.95;;;17.85;;
56435;SDS011;42335;44.872;20.658;2024-03-08T04:58:37;30.05;;;18.50;;
56435;SDS011;42335;44.872;20.658;2024-03-08T05:01:03;31.63;;;18.45;;
56435;SDS011;42335;44.872;20.658;2024-03-08T05:03:31;24.92;;;17.15;;
56435;SDS011;42335;44.872;20.658;2024-03-08T05:05:56;28.48;;;17.92;;
56435;SDS011;42335;44.872;20.658;2024-03-08T05:08:22;27.67;;;17.30;;
56435;SDS011;42335;44.872;20.658;2024-03-08T05:10:48;23.80;;;16.63;;
56435;SDS011;42335;44.872;20.658;2024-03-08T05:13:14;70.97;;;45.03;;
56435;SDS011;42335;44.872;20.658;2024-03-08T05:15:41;60.95;;;41.25;;
56435;SDS011;42335;44.872;20.658;2024-03-08T05:18:07;29.13;;;19.88;;
56435;SDS011;42335;44.872;20.658;2024-03-08T05:20:33;28.23;;;18.38;;
56435;SDS011;42335;44.872;20.658;2024-03-08T05:23:02;30.38;;;20.58;;
56435;SDS011;42335;44.872;20.658;2024-03-08T05:25:28;27.13;;;18.08;;
56435;SDS011;42335;44.872;20.658;2024-03-08T05:27:54;31.00;;;19.73;;
56435;SDS011;42335;44.872;20.658;2024-03-08T05:30:20;26.80;;;18.58;;
56435;SDS011;42335;44.872;20.658;2024-03-08T05:32:46;30.48;;;19.13;;
56435;SDS011;42335;44.872;20.658;2024-03-08T05:35:12;27.20;;;18.70;;
56435;SDS011;42335;44.872;20.658;2024-03-08T05:37:41;32.78;;;18.95;;
56435;SDS011;42335;44.872;20.658;2024-03-08T05:40:10;27.42;;;18.25;;
56435;SDS011;42335;44.872;20.658;2024-03-08T05:42:36;27.98;;;18.17;;
56435;SDS011;42335;44.872;20.658;2024-03-08T05:45:02;25.75;;;17.90;;
56435;SDS011;42335;44.872;20.658;2024-03-08T05:47:28;26.58;;;18.65;;
56435;SDS011;42335;44.872;20.658;2024-03-08T05:49:54;27.15;;;19.35;;
56435;SDS011;42335;44.872;20.658;2024-03-08T05:52:20;23.40;;;17.98;;
56435;SDS011;42335;44.872;20.658;2024-03-08T05:54:46;25.27;;;17.95;;
56435;SDS011;42335;44.872;20.658;2024-03-08T05:57:12;24.27;;;17.23;;
56435;SDS011;42335;44.872;20.658;2024-03-08T05:59:41;28.73;;;17.42;;
56435;SDS011;42335;44.872;20.658;2024-03-08T06:02:10;25.60;;;18.25;;
56435;SDS011;42335;44.872;20.658;2024-03-08T06:04:45;24.88;;;16.38;;
56435;SDS011;42335;44.872;20.658;2024-03-08T06:07:12;24.30;;;17.20;;
56435;SDS011;42335;44.872;20.658;2024-03-08T06:09:38;26.42;;;16.80;;
56435;SDS011;42335;44.872;20.658;2024-03-08T06:12:04;22.52;;;17.08;;
56435;SDS011;42335;44.872;20.658;2024-03-08T06:14:31;26.75;;;16.65;;
56435;SDS011;42335;44.872;20.658;2024-03-08T06:16:57;22.90;;;16.23;;
56435;SDS011;42335;44.872;20.658;2024-03-08T06:19:23;26.02;;;16.23;;
56435;SDS011;42335;44.872;20.658;2024-03-08T06:21:49;143.23;;;80.03;;
56435;SDS011;42335;44.872;20.658;2024-03-08T06:24:15;141.52;;;100.82;;
56435;SDS011;42335;44.872;20.658;2024-03-08T06:26:40;24.20;;;17.88;;
56435;SDS011;42335;44.872;20.658;2024-03-08T06:29:06;25.38;;;16.67;;
56435;SDS011;42335;44.872;20.658;2024-03-08T06:31:32;23.73;;;15.27;;
56435;SDS011;42335;44.872;20.658;2024-03-08T06:33:58;22.27;;;16.08;;
56435;SDS011;42335;44.872;20.658;2024-03-08T06:36:24;28.35;;;15.90;;
56435;SDS011;42335;44.872;20.658;2024-03-08T06:38:50;24.05;;;15.85;;
56435;SDS011;42335;44.872;20.658;2024-03-08T06:41:16;26.65;;;16.88;;
56435;SDS011;42335;44.872;20.658;2024-03-08T06:43:45;26.70;;;16.73;;
56435;SDS011;42335;44.872;20.658;2024-03-08T06:46:11;26.17;;;16.23;;
56435;SDS011;42335;44.872;20.658;2024-03-08T06:48:38;24.50;;;15.57;;
56435;SDS011;42335;44.872;20.658;2024-03-08T06:51:04;20.05;;;14.70;;
56435;SDS011;42335;44.872;20.658;2024-03-08T06:53:30;26.25;;;17.13;;
56435;SDS011;42335;44.872;20.658;2024-03-08T06:55:57;28.30;;;16.70;;
56435;SDS011;42335;44.872;20.658;2024-03-08T06:58:23;34.53;;;16.67;;
56435;SDS011;42335;44.872;20.658;2024-03-08T07:00:49;26.40;;;16.95;;
56435;SDS011;42335;44.872;20.658;2024-03-08T07:03:18;24.92;;;16.98;;
56435;SDS011;42335;44.872;20.658;2024-03-08T07:05:44;26.55;;;17.35;;
56435;SDS011;42335;44.872;20.658;2024-03-08T07:08:10;21.33;;;15.50;;
56435;SDS011;42335;44.872;20.658;2024-03-08T07:10:39;26.75;;;17.80;;
56435;SDS011;42335;44.872;20.658;2024-03-08T07:13:06;27.90;;;17.73;;
56435;SDS011;42335;44.872;20.658;2024-03-08T07:15:33;25.88;;;17.35;;
56435;SDS011;42335;44.872;20.658;2024-03-08T07:17:58;25.80;;;16.90;;
56435;SDS011;42335;44.872;20.658;2024-03-08T07:20:27;24.42;;;17.23;;
56435;SDS011;42335;44.872;20.658;2024-03-08T07:22:53;23.17;;;17.08;;
56435;SDS011;42335;44.872;20.658;2024-03-08T07:25:20;23.77;;;16.00;;
56435;SDS011;42335;44.872;20.658;2024-03-08T07:27:46;24.88;;;15.85;;
56435;SDS011;42335;44.872;20.658;2024-03-08T07:30:23;24.40;;;15.80;;
56435;SDS011;42335;44.872;20.658;2024-03-08T07:33:08;25.40;;;16.85;;
56435;SDS011;42335;44.872;20.658;2024-03-08T07:35:40;27.05;;;16.70;;
56435;SDS011;42335;44.872;20.658;2024-03-08T07:38:07;22.55;;;15.30;;
56435;SDS011;42335;44.872;20.658;2024-03-08T07:40:38;25.88;;;17.42;;
56435;SDS011;42335;44.872;20.658;2024-03-08T07:43:14;29.70;;;18.20;;
56435;SDS011;42335;44.872;20.658;2024-03-08T07:45:39;26.23;;;17.02;;
56435;SDS011;42335;44.872;20.658;2024-03-08T07:48:06;29.90;;;18.55;;
56435;SDS011;42335;44.872;20.658;2024-03-08T07:50:37;25.48;;;17.33;;
56435;SDS011;42335;44.872;20.658;2024-03-08T07:53:04;25.08;;;17.15;;
56435;SDS011;42335;44.872;20.658;2024-03-08T07:55:32;33.33;;;18.98;;
56435;SDS011;42335;44.872;20.658;2024-03-08T07:57:59;26.52;;;18.33;;
56435;SDS011;42335;44.872;20.658;2024-03-08T08:00:25;24.90;;;16.75;;
56435;SDS011;42335;44.872;20.658;2024-03-08T08:02:52;30.95;;;15.98;;
56435;SDS011;42335;44.872;20.658;2024-03-08T08:05:18;27.52;;;17.45;;
56435;SDS011;42335;44.872;20.658;2024-03-08T08:07:45;26.33;;;16.90;;
56435;SDS011;42335;44.872;20.658;2024-03-08T08:10:14;25.88;;;18.00;;
56435;SDS011;42335;44.872;20.658;2024-03-08T08:12:46;32.25;;;17.35;;
56435;SDS011;42335;44.872;20.658;2024-03-08T08:15:13;26.55;;;16.58;;
56435;SDS011;42335;44.872;20.658;2024-03-08T08:17:43;27.17;;;17.40;;
56435;SDS011;42335;44.872;20.658;2024-03-08T08:20:10;24.17;;;15.77;;
56435;SDS011;42335;44.872;20.658;2024-03-08T08:22:39;26.38;;;16.45;;
56435;SDS011;42335;44.872;20.658;2024-03-08T08:25:06;30.38;;;18.00;;
56435;SDS011;42335;44.872;20.658;2024-03-08T08:27:32;24.10;;;17.27;;
56435;SDS011;42335;44.872;20.658;2024-03-08T08:29:58;26.65;;;18.65;;
56435;SDS011;42335;44.872;20.658;2024-03-08T08:32:25;26.15;;;17.23;;
56435;SDS011;42335;44.872;20.658;2024-03-08T08:34:51;28.05;;;16.90;;
56435;SDS011;42335;44.872;20.658;2024-03-08T08:37:17;25.20;;;16.33;;
56435;SDS011;42335;44.872;20.658;2024-03-08T08:39:43;24.20;;;16.35;;
56435;SDS011;42335;44.872;20.658;2024-03-08T08:42:08;28.10;;;16.40;;
56435;SDS011;42335;44.872;20.658;2024-03-08T08:44:35;24.30;;;16.30;;
56435;SDS011;42335;44.872;20.658;2024-03-08T08:47:01;23.02;;;17.10;;
56435;SDS011;42335;44.872;20.658;2024-03-08T08:49:28;26.42;;;17.15;;
56435;SDS011;42335;44.872;20.658;2024-03-08T08:51:56;24.00;;;14.95;;
56435;SDS011;42335;44.872;20.658;2024-03-08T08:54:23;21.45;;;14.52;;
56435;SDS011;42335;44.872;20.658;2024-03-08T08:56:50;19.60;;;14.50;;
56435;SDS011;42335;44.872;20.658;2024-03-08T08:59:16;21.70;;;13.23;;
56435;SDS011;42335;44.872;20.658;2024-03-08T09:01:45;22.23;;;13.80;;
56435;SDS011;42335;44.872;20.658;2024-03-08T09:04:15;22.13;;;14.07;;
56435;SDS011;42335;44.872;20.658;2024-03-08T09:06:41;23.88;;;14.45;;
56435;SDS011;42335;44.872;20.658;2024-03-08T09:09:07;21.50;;;13.65;;
56435;SDS011;42335;44.872;20.658;2024-03-08T09:11:39;18.80;;;12.35;;
56435;SDS011;42335;44.872;20.658;2024-03-08T09:14:07;21.95;;;13.35;;
56435;SDS011;42335;44.872;20.658;2024-03-08T09:16:37;21.05;;;13.75;;
56435;SDS011;42335;44.872;20.658;2024-03-08T09:19:03;18.00;;;13.50;;
56435;SDS011;42335;44.872;20.658;2024-03-08T09:21:28;28.02;;;14.50;;
56435;SDS011;42335;44.872;20.658;2024-03-08T09:23:55;16.85;;;12.02;;
56435;SDS011;42335;44.872;20.658;2024-03-08T09:26:20;21.17;;;13.57;;
56435;SDS011;42335;44.872;20.658;2024-03-08T09:28:47;23.88;;;13.82;;
56435;SDS011;42335;44.872;20.658;2024-03-08T09:31:13;23.75;;;13.90;;
56435;SDS011;42335;44.872;20.658;2024-03-08T09:33:38;21.20;;;13.75;;
56435;SDS011;42335;44.872;20.658;2024-03-08T09:36:05;23.27;;;13.30;;
56435;SDS011;42335;44.872;20.658;2024-03-08T09:38:32;19.15;;;13.20;;
56435;SDS011;42335;44.872;20.658;2024-03-08T09:41:01;23.52;;;14.13;;
56435;SDS011;42335;44.872;20.658;2024-03-08T09:43:29;20.67;;;13.43;;
56435;SDS011;42335;44.872;20.658;2024-03-08T09:45:55;22.00;;;15.50;;
56435;SDS011;42335;44.872;20.658;2024-03-08T09:48:22;23.85;;;15.02;;
56435;SDS011;42335;44.872;20.658;2024-03-08T09:50:49;25.08;;;14.70;;
56435;SDS011;42335;44.872;20.658;2024-03-08T09:53:15;21.25;;;13.88;;
56435;SDS011;42335;44.872;20.658;2024-03-08T09:55:41;19.13;;;13.20;;
56435;SDS011;42335;44.872;20.658;2024-03-08T09:58:10;18.40;;;13.35;;
56435;SDS011;42335;44.872;20.658;2024-03-08T10:00:52;22.65;;;12.88;;
56435;SDS011;42335;44.872;20.658;2024-03-08T10:03:19;17.65;;;12.93;;
56435;SDS011;42335;44.872;20.658;2024-03-08T10:05:45;30.13;;;13.68;;
56435;SDS011;42335;44.872;20.658;2024-03-08T10:08:11;20.77;;;12.98;;
56435;SDS011;42335;44.872;20.658;2024-03-08T10:10:38;21.77;;;13.50;;
56435;SDS011;42335;44.872;20.658;2024-03-08T10:13:08;20.30;;;14.10;;
56435;SDS011;42335;44.872;20.658;2024-03-08T10:15:35;18.75;;;13.55;;
56435;SDS011;42335;44.872;20.658;2024-03-08T10:18:01;18.20;;;13.48;;
56435;SDS011;42335;44.872;20.658;2024-03-08T10:20:27;17.05;;;12.32;;
56435;SDS011;42335;44.872;20.658;2024-03-08T10:23:02;18.80;;;12.73;;
56435;SDS011;42335;44.872;20.658;2024-03-08T10:25:30;17.02;;;12.57;;
56435;SDS011;42335;44.872;20.658;2024-03-08T10:27:56;16.90;;;12.95;;
56435;SDS011;42335;44.872;20.658;2024-03-08T10:30:22;16.88;;;12.18;;
56435;SDS011;42335;44.872;20.658;2024-03-08T10:32:49;18.95;;;13.98;;
56435;SDS011;42335;44.872;20.658;2024-03-08T10:35:16;18.50;;;13.27;;
56435;SDS011;42335;44.872;20.658;2024-03-08T10:40:09;17.10;;;12.63;;
56435;SDS011;42335;44.872;20.658;2024-03-08T10:42:47;18.50;;;12.23;;
56435;SDS011;42335;44.872;20.658;2024-03-08T10:48:08;21.92;;;13.38;;
56435;SDS011;42335;44.872;20.658;2024-03-08T10:50:53;19.30;;;12.80;;
56435;SDS011;42335;44.872;20.658;2024-03-08T10:53:20;16.85;;;11.93;;
56435;SDS011;42335;44.872;20.658;2024-03-08T10:55:49;16.67;;;12.18;;
56435;SDS011;42335;44.872;20.658;2024-03-08T10:58:19;15.88;;;11.38;;
56435;SDS011;42335;44.872;20.658;2024-03-08T11:00:52;17.02;;;12.20;;
56435;SDS011;42335;44.872;20.658;2024-03-08T11:06:07;20.92;;;12.32;;
56435;SDS011;42335;44.872;20.658;2024-03-08T11:08:37;17.38;;;13.02;;
56435;SDS011;42335;44.872;20.658;2024-03-08T11:11:04;17.17;;;13.40;;
56435;SDS011;42335;44.872;20.658;2024-03-08T11:13:33;25.45;;;15.55;;
56435;SDS011;42335;44.872;20.658;2024-03-08T11:16:08;27.70;;;16.95;;
56435;SDS011;42335;44.872;20.658;2024-03-08T11:18:35;18.10;;;13.25;;
56435;SDS011;42335;44.872;20.658;2024-03-08T11:21:06;25.15;;;14.52;;
56435;SDS011;42335;44.872;20.658;2024-03-08T11:23:37;21.02;;;13.98;;
56435;SDS011;42335;44.872;20.658;2024-03-08T11:26:17;17.88;;;12.52;;
56435;SDS011;42335;44.872;20.658;2024-03-08T11:28:44;18.60;;;12.98;;
56435;SDS011;42335;44.872;20.658;2024-03-08T11:33:36;21.10;;;12.43;;
56435;SDS011;42335;44.872;20.658;2024-03-08T11:36:11;16.50;;;10.75;;
56435;SDS011;42335;44.872;20.658;2024-03-08T11:38:44;18.00;;;11.43;;
56435;SDS011;42335;44.872;20.658;2024-03-08T11:41:14;18.95;;;11.48;;
56435;SDS011;42335;44.872;20.658;2024-03-08T11:43:43;16.92;;;11.23;;
56435;SDS011;42335;44.872;20.658;2024-03-08T11:46:13;16.83;;;11.55;;
56435;SDS011;42335;44.872;20.658;2024-03-08T11:48:40;12.30;;;9.45;;
56435;SDS011;42335;44.872;20.658;2024-03-08T11:51:13;14.85;;;10.75;;
56435;SDS011;42335;44.872;20.658;2024-03-08T11:53:40;15.38;;;11.18;;
56435;SDS011;42335;44.872;20.658;2024-03-08T11:56:07;14.80;;;11.18;;
56435;SDS011;42335;44.872;20.658;2024-03-08T11:58:33;23.20;;;12.32;;
56435;SDS011;42335;44.872;20.658;2024-03-08T12:01:07;13.07;;;9.82;;
56435;SDS011;42335;44.872;20.658;2024-03-08T12:03:38;20.30;;;10.63;;
56435;SDS011;42335;44.872;20.658;2024-03-08T12:06:04;13.40;;;9.60;;
56435;SDS011;42335;44.872;20.658;2024-03-08T12:08:30;13.80;;;9.45;;
56435;SDS011;42335;44.872;20.658;2024-03-08T12:10:57;13.90;;;10.60;;
56435;SDS011;42335;44.872;20.658;2024-03-08T12:13:29;15.27;;;10.00;;
56435;SDS011;42335;44.872;20.658;2024-03-08T12:15:57;14.70;;;10.75;;
56435;SDS011;42335;44.872;20.658;2024-03-08T12:18:27;22.02;;;11.57;;
56435;SDS011;42335;44.872;20.658;2024-03-08T12:21:03;15.55;;;11.18;;
56435;SDS011;42335;44.872;20.658;2024-03-08T12:23:31;14.68;;;10.05;;
56435;SDS011;42335;44.872;20.658;2024-03-08T12:25:57;15.55;;;11.48;;
56435;SDS011;42335;44.872;20.658;2024-03-08T12:28:23;17.10;;;11.25;;
56435;SDS011;42335;44.872;20.658;2024-03-08T12:30:49;13.98;;;10.65;;
56435;SDS011;42335;44.872;20.658;2024-03-08T12:33:19;15.60;;;10.02;;
56435;SDS011;42335;44.872;20.658;2024-03-08T12:35:51;21.20;;;12.43;;
56435;SDS011;42335;44.872;20.658;2024-03-08T12:38:23;15.00;;;10.50;;
56435;SDS011;42335;44.872;20.658;2024-03-08T12:40:57;15.55;;;11.45;;
56435;SDS011;42335;44.872;20.658;2024-03-08T12:43:24;14.30;;;10.93;;
56435;SDS011;42335;44.872;20.658;2024-03-08T12:45:50;17.50;;;11.45;;
56435;SDS011;42335;44.872;20.658;2024-03-08T12:48:17;15.63;;;11.65;;
56435;SDS011;42335;44.872;20.658;2024-03-08T12:50:45;14.25;;;9.70;;
56435;SDS011;42335;44.872;20.658;2024-03-08T12:53:13;21.83;;;10.65;;
56435;SDS011;42335;44.872;20.658;2024-03-08T12:55:39;12.00;;;9.20;;
56435;SDS011;42335;44.872;20.658;2024-03-08T12:58:05;17.05;;;10.43;;
56435;SDS011;42335;44.872;20.658;2024-03-08T13:00:33;14.05;;;10.27;;
56435;SDS011;42335;44.872;20.658;2024-03-08T13:03:01;14.27;;;9.48;;
56435;SDS011;42335;44.872;20.658;2024-03-08T13:05:28;15.52;;;9.80;;
56435;SDS011;42335;44.872;20.658;2024-03-08T13:07:55;14.88;;;9.50;;
56435;SDS011;42335;44.872;20.658;2024-03-08T13:10:22;16.25;;;10.27;;
56435;SDS011;42335;44.872;20.658;2024-03-08T13:12:49;15.48;;;10.38;;
56435;SDS011;42335;44.872;20.658;2024-03-08T13:15:15;20.63;;;10.70;;
56435;SDS011;42335;44.872;20.658;2024-03-08T13:17:45;17.73;;;10.95;;
56435;SDS011;42335;44.872;20.658;2024-03-08T13:20:14;16.33;;;11.02;;
56435;SDS011;42335;44.872;20.658;2024-03-08T13:22:47;17.35;;;11.55;;
56435;SDS011;42335;44.872;20.658;2024-03-08T13:25:13;18.90;;;11.13;;
56435;SDS011;42335;44.872;20.658;2024-03-08T13:27:40;12.32;;;8.88;;
56435;SDS011;42335;44.872;20.658;2024-03-08T13:30:10;15.50;;;10.07;;
56435;SDS011;42335;44.872;20.658;2024-03-08T13:32:41;12.88;;;10.18;;
56435;SDS011;42335;44.872;20.658;2024-03-08T13:35:11;19.95;;;11.77;;
56435;SDS011;42335;44.872;20.658;2024-03-08T13:37:40;12.60;;;9.35;;
56435;SDS011;42335;44.872;20.658;2024-03-08T13:40:07;11.77;;;9.70;;
56435;SDS011;42335;44.872;20.658;2024-03-08T13:42:39;13.55;;;9.88;;
56435;SDS011;42335;44.872;20.658;2024-03-08T13:45:06;11.38;;;9.52;;
56435;SDS011;42335;44.872;20.658;2024-03-08T13:47:40;18.80;;;8.88;;
56435;SDS011;42335;44.872;20.658;2024-03-08T13:50:06;12.75;;;10.25;;
56435;SDS011;42335;44.872;20.658;2024-03-08T13:52:37;14.57;;;9.65;;
56435;SDS011;42335;44.872;20.658;2024-03-08T13:55:04;13.15;;;9.68;;
56435;SDS011;42335;44.872;20.658;2024-03-08T13:57:33;12.88;;;9.60;;
56435;SDS011;42335;44.872;20.658;2024-03-08T13:59:59;15.00;;;10.57;;
56435;SDS011;42335;44.872;20.658;2024-03-08T14:02:25;18.13;;;9.52;;
56435;SDS011;42335;44.872;20.658;2024-03-08T14:04:56;21.58;;;10.82;;
56435;SDS011;42335;44.872;20.658;2024-03-08T14:07:22;14.35;;;10.65;;
56435;SDS011;42335;44.872;20.658;2024-03-08T14:09:51;16.75;;;9.32;;
56435;SDS011;42335;44.872;20.658;2024-03-08T14:12:18;13.15;;;8.77;;
56435;SDS011;42335;44.872;20.658;2024-03-08T14:14:44;14.38;;;10.50;;
56435;SDS011;42335;44.872;20.658;2024-03-08T14:17:10;16.52;;;10.88;;
56435;SDS011;42335;44.872;20.658;2024-03-08T14:19:42;12.80;;;8.75;;
56435;SDS011;42335;44.872;20.658;2024-03-08T14:22:08;15.20;;;9.93;;
56435;SDS011;42335;44.872;20.658;2024-03-08T14:24:36;23.42;;;11.60;;